Time;durP1;ratioP1;P1;durP2;ratioP2;P2;SDS_P1;SDS_P2;PMS_P1;PMS_P2;Temp;Humidity;BMP_temperature;BMP_pressure;BME280_temperature;BME280_humidity;BME280_pressure;Samples;Min_cycle;Max_cycle;Signal;HPM_P1;HPM_P2
2022/04/15 00:01:34;;;;;;;28.80;12.97;;;;;;;10.04;55.06;95202.75;4983254;28;20299;-87
2022/04/15 00:04:00;;;;;;;24.17;11.27;;;;;;;10.02;54.43;95209.94;4987683;28;20204;-85
2022/04/15 00:06:27;;;;;;;29.70;13.57;;;;;;;9.99;55.20;95201.75;4983797;28;20316;-85
2022/04/15 00:08:55;;;;;;;22.83;10.57;;;;;;;9.94;54.56;95206.75;4985389;28;20203;-86
2022/04/15 00:11:22;;;;;;;27.40;12.00;;;;;;;9.85;55.60;95203.56;4984026;28;20196;-85
2022/04/15 00:13:49;;;;;;;30.97;12.50;;;;;;;9.82;55.83;95198.75;4987029;28;20211;-86
2022/04/15 00:16:16;;;;;;;29.73;13.17;;;;;;;9.84;57.03;95201.16;4983866;28;20672;-85
2022/04/15 00:18:44;;;;;;;26.17;11.63;;;;;;;9.78;56.34;95213.16;4981203;28;20587;-84
2022/04/15 00:21:12;;;;;;;23.63;12.23;;;;;;;9.67;57.07;95198.13;4983053;28;20196;-85
2022/04/15 00:23:38;;;;;;;33.97;12.57;;;;;;;9.64;57.51;95207.13;4983733;28;20196;-85
2022/04/15 00:26:06;;;;;;;26.87;12.50;;;;;;;9.59;57.39;95204.34;4983849;28;20199;-84
2022/04/15 00:28:33;;;;;;;22.67;11.83;;;;;;;9.54;58.96;95198.13;4985758;28;20215;-85
2022/04/15 00:31:00;;;;;;;29.77;11.47;;;;;;;9.56;58.72;95209.13;4988261;28;20670;-84
2022/04/15 00:33:27;;;;;;;24.93;11.80;;;;;;;9.58;58.32;95207.91;4983723;28;20203;-88
2022/04/15 00:35:55;;;;;;;31.50;11.53;;;;;;;9.59;58.58;95200.94;4994929;28;20652;-88
2022/04/15 00:38:24;;;;;;;25.67;10.73;;;;;;;9.50;58.90;95205.50;4990423;28;20255;-89
2022/04/15 00:40:51;;;;;;;22.57;10.43;;;;;;;9.40;58.24;95202.53;4990352;28;20207;-89
2022/04/15 00:43:18;;;;;;;27.43;10.80;;;;;;;9.25;58.14;95177.75;4992110;28;20328;-85
2022/04/15 00:45:49;;;;;;;35.90;11.13;;;;;;;9.33;59.54;95196.50;4985186;28;20532;-84
2022/04/15 00:48:19;;;;;;;19.40;10.10;;;;;;;9.34;59.35;95194.72;4988204;28;20231;-85
2022/04/15 00:50:46;;;;;;;21.00;10.30;;;;;;;9.34;59.58;95199.91;4992565;28;20591;-86
2022/04/15 00:53:17;;;;;;;21.77;11.20;;;;;;;9.38;59.58;95198.53;4989751;28;21362;-85
2022/04/15 00:55:44;;;;;;;20.17;10.63;;;;;;;9.23;58.81;95195.28;4986807;28;20287;-85
2022/04/15 00:58:17;;;;;;;17.97;9.40;;;;;;;9.22;58.63;95206.66;4990565;28;20211;-87
2022/04/15 01:01:01;;;;;;;24.00;9.93;;;;;;;9.16;60.06;95215.22;4988293;28;20211;-86
2022/04/15 01:03:30;;;;;;;23.67;9.30;;;;;;;9.15;59.79;95201.44;4985240;28;20201;-86
2022/04/15 01:06:00;;;;;;;14.73;8.33;;;;;;;9.16;57.92;95208.22;4989700;28;20255;-85
2022/04/15 01:08:42;;;;;;;17.87;8.07;;;;;;;9.11;57.37;95211.44;4987232;28;20657;-85
2022/04/15 01:11:12;;;;;;;15.50;8.40;;;;;;;9.09;57.66;95205.63;4987040;28;20198;-86
2022/04/15 01:14:05;;;;;;;17.60;8.70;;;;;;;9.11;58.05;95208.84;4984120;28;20679;-87
2022/04/15 01:16:33;;;;;;;24.07;9.03;;;;;;;9.04;58.54;95202.00;4918337;28;20260;-87
2022/04/15 01:19:00;;;;;;;19.57;9.63;;;;;;;9.02;59.01;95196.22;4989165;28;20200;-87
2022/04/15 01:21:32;;;;;;;16.17;8.40;;;;;;;9.04;58.61;95200.22;4985536;28;20242;-88
2022/04/15 01:24:00;;;;;;;18.50;9.07;;;;;;;9.02;59.06;95204.00;4988511;28;20205;-86
2022/04/15 01:26:27;;;;;;;19.00;9.57;;;;;;;8.91;59.68;95195.00;4986652;28;20211;-84
2022/04/15 01:28:55;;;;;;;16.80;9.73;;;;;;;8.97;60.28;95196.03;4991154;28;20326;-85
2022/04/15 01:31:22;;;;;;;22.17;9.80;;;;;;;8.89;60.10;95198.75;4984903;28;20189;-87
2022/04/15 01:33:49;;;;;;;22.17;10.20;;;;;;;8.81;59.88;95184.19;4988155;28;20242;-88
2022/04/15 01:36:15;;;;;;;25.03;10.27;;;;;;;8.78;60.40;95189.75;4988021;28;20223;-87
2022/04/15 01:38:42;;;;;;;19.10;9.13;;;;;;;8.61;61.33;95178.13;4988825;28;20872;-86
2022/04/15 01:41:10;;;;;;;15.77;9.93;;;;;;;8.69;61.35;95183.13;4993401;28;20735;-87
2022/04/15 01:43:37;;;;;;;16.97;9.17;;;;;;;8.72;60.97;95184.53;4994432;28;20192;-86
2022/04/15 01:46:10;;;;;;;18.20;9.70;;;;;;;8.79;61.41;95182.78;4990459;28;20207;-88
2022/04/15 01:48:37;;;;;;;23.00;9.47;;;;;;;8.81;61.11;95184.19;4987748;28;20220;-87
2022/04/15 01:51:04;;;;;;;19.10;9.60;;;;;;;8.78;62.02;95181.97;4989965;28;20200;-87
2022/04/15 01:53:31;;;;;;;17.43;7.80;;;;;;;8.80;60.15;95177.41;4986047;28;20230;-87
2022/04/15 01:55:58;;;;;;;18.47;8.90;;;;;;;8.80;60.12;95182.56;4990029;28;20930;-86
2022/04/15 01:58:26;;;;;;;17.10;9.17;;;;;;;8.61;61.21;95175.53;4990074;28;20215;-86
2022/04/15 02:00:53;;;;;;;19.67;9.60;;;;;;;8.54;62.17;95178.09;4989988;28;20212;-87
2022/04/15 02:03:20;;;;;;;15.00;9.20;;;;;;;8.50;62.37;95176.88;4995137;28;20199;-87
2022/04/15 02:05:47;;;;;;;15.97;10.00;;;;;;;8.54;62.30;95174.72;4992797;28;20208;-87
2022/04/15 02:08:21;;;;;;;17.40;9.37;;;;;;;8.45;63.33;95163.72;4993340;28;20232;-87
2022/04/15 02:10:48;;;;;;;18.63;9.30;;;;;;;8.42;62.66;95164.09;4992431;28;20207;-87
2022/04/15 02:13:15;;;;;;;19.67;9.67;;;;;;;8.44;63.38;95169.88;5000396;28;20196;-86
2022/04/15 02:15:43;;;;;;;16.13;9.60;;;;;;;8.37;63.92;95165.63;4994919;28;20208;-87
2022/04/15 02:18:13;;;;;;;14.27;8.80;;;;;;;8.32;63.45;95157.66;5009143;28;20196;-88
2022/04/15 02:20:40;;;;;;;16.87;8.73;;;;;;;8.33;63.94;95172.22;4992507;28;20200;-87
2022/04/15 02:23:07;;;;;;;16.87;9.47;;;;;;;8.30;64.21;95163.03;4996340;28;20196;-87
2022/04/15 02:25:33;;;;;;;22.37;10.47;;;;;;;8.09;64.69;95133.78;4991230;28;20196;-88
2022/04/15 02:28:00;;;;;;;23.07;10.13;;;;;;;8.15;64.83;95156.34;4992649;28;20228;-88
2022/04/15 02:30:27;;;;;;;16.10;9.47;;;;;;;8.07;64.96;95149.53;4991658;28;20199;-86
2022/04/15 02:32:55;;;;;;;24.83;11.23;;;;;;;8.02;65.40;95151.09;4993916;28;20211;-87
2022/04/15 02:35:22;;;;;;;18.13;11.03;;;;;;;8.02;65.54;95156.25;4990972;28;20211;-89
2022/04/15 02:37:49;;;;;;;24.60;11.80;;;;;;;8.06;66.11;95171.22;4988996;28;20240;-86
2022/04/15 02:40:16;;;;;;;20.87;12.17;;;;;;;8.04;66.02;95165.44;4989340;28;20204;-87
2022/04/15 02:42:43;;;;;;;24.13;12.27;;;;;;;7.97;66.06;95160.22;4991430;28;20211;-86
2022/04/15 02:45:10;;;;;;;20.87;11.43;;;;;;;7.95;65.73;95159.59;4989372;28;20713;-86
2022/04/15 02:47:37;;;;;;;23.27;11.60;;;;;;;7.90;66.50;95141.25;4992021;28;20223;-87
2022/04/15 02:50:07;;;;;;;22.43;12.23;;;;;;;8.00;65.78;95169.38;4992738;28;20207;-86
2022/04/15 02:52:35;;;;;;;20.10;11.70;;;;;;;8.07;65.78;95166.84;4987855;28;20659;-86
2022/04/15 02:55:21;;;;;;;30.80;13.77;;;;;;;8.05;64.90;95172.22;4990213;28;20543;-85
2022/04/15 02:57:48;;;;;;;24.83;13.10;;;;;;;8.02;65.66;95164.84;4990696;28;20212;-84
2022/04/15 03:00:15;;;;;;;30.27;13.47;;;;;;;7.97;66.22;95172.34;4990194;28;20211;-83
2022/04/15 03:02:42;;;;;;;31.77;13.23;;;;;;;7.89;65.07;95157.78;4989804;28;20332;-83
2022/04/15 03:05:12;;;;;;;27.53;12.70;;;;;;;7.96;65.01;95168.94;4991424;28;20212;-83
2022/04/15 03:07:40;;;;;;;20.50;9.10;;;;;;;7.99;64.60;95178.91;4985706;28;20714;-82
2022/04/15 03:10:09;;;;;;;13.63;6.80;;;;;;;7.84;62.68;95180.03;4988353;28;20200;-83
2022/04/15 03:12:36;;;;;;;13.67;6.83;;;;;;;7.74;62.94;95182.13;4992338;28;20199;-83
2022/04/15 03:15:04;;;;;;;23.43;9.07;;;;;;;7.72;63.56;95171.16;4987624;28;20196;-83
2022/04/15 03:17:31;;;;;;;21.33;10.50;;;;;;;7.81;64.70;95173.44;4985405;28;20220;-83
2022/04/15 03:19:58;;;;;;;24.20;12.90;;;;;;;7.84;66.36;95169.69;4988345;28;20593;-82
2022/04/15 03:22:26;;;;;;;15.77;8.63;;;;;;;7.73;65.63;95163.22;4988608;28;20327;-83
2022/04/15 03:24:53;;;;;;;26.63;12.10;;;;;;;7.71;65.85;95169.56;4993797;28;20592;-84
2022/04/15 03:27:20;;;;;;;21.80;10.47;;;;;;;7.74;65.86;95170.00;4987082;28;20629;-83
2022/04/15 03:29:47;;;;;;;37.13;12.57;;;;;;;7.71;65.47;95165.19;4989422;28;20701;-81
2022/04/15 03:32:14;;;;;;;25.30;12.63;;;;;;;7.67;66.08;95166.56;4988839;28;21516;-86
2022/04/15 03:34:41;;;;;;;19.67;10.27;;;;;;;7.67;65.81;95174.34;4989906;28;20200;-87
2022/04/15 03:37:08;;;;;;;18.87;10.27;;;;;;;7.54;65.58;95163.06;4989434;28;20200;-87
2022/04/15 03:39:36;;;;;;;23.47;11.50;;;;;;;7.63;66.06;95177.47;4989601;28;20232;-84
2022/04/15 03:42:04;;;;;;;21.83;11.27;;;;;;;7.69;66.94;95181.88;4993866;28;20723;-83
2022/04/15 03:44:31;;;;;;;25.47;11.83;;;;;;;7.69;67.44;95182.69;4988989;28;20208;-83
2022/04/15 03:46:58;;;;;;;23.93;12.17;;;;;;;7.64;67.04;95168.72;4988249;28;20223;-84
2022/04/15 03:49:25;;;;;;;32.23;12.20;;;;;;;7.70;66.98;95183.50;4993204;28;20222;-83
2022/04/15 03:51:52;;;;;;;29.00;11.77;;;;;;;7.72;66.52;95186.69;4991656;28;20212;-83
2022/04/15 03:54:18;;;;;;;22.50;11.63;;;;;;;7.68;66.25;95181.09;4987626;28;20591;-83
2022/04/15 03:56:47;;;;;;;30.43;12.13;;;;;;;7.68;67.55;95186.25;4985825;28;20208;-83
2022/04/15 03:59:14;;;;;;;25.50;12.30;;;;;;;7.68;67.38;95181.09;4987809;28;20283;-85
2022/04/15 04:01:45;;;;;;;26.83;11.60;;;;;;;7.65;67.54;95189.22;4985709;28;20219;-84
2022/04/15 04:04:12;;;;;;;30.40;11.47;;;;;;;7.67;67.70;95187.25;4990640;28;20258;-85
2022/04/15 04:06:39;;;;;;;25.23;10.60;;;;;;;7.69;66.67;95176.72;4987393;28;20200;-85
2022/04/15 04:09:06;;;;;;;31.97;11.97;;;;;;;7.63;67.53;95186.03;4987588;28;20643;-85
2022/04/15 04:11:33;;;;;;;28.80;12.07;;;;;;;7.60;67.03;95190.75;4989784;28;20290;-82
2022/04/15 04:14:01;;;;;;;27.23;11.20;;;;;;;7.57;67.29;95194.53;4991550;28;20784;-82
2022/04/15 04:16:28;;;;;;;25.37;11.87;;;;;;;7.55;67.57;95191.34;4986566;28;20199;-73
2022/04/15 04:18:55;;;;;;;34.13;12.93;;;;;;;7.59;68.03;95205.47;4981436;28;20301;-73
2022/04/15 04:21:22;;;;;;;36.73;12.90;;;;;;;7.60;67.98;95201.09;4985374;28;20259;-72
2022/04/15 04:23:49;;;;;;;34.70;13.27;;;;;;;7.57;68.01;95204.06;4984054;28;20208;-72
2022/04/15 04:26:16;;;;;;;36.27;14.30;;;;;;;7.56;68.28;95198.09;4985754;28;20216;-71
2022/04/15 04:28:43;;;;;;;38.50;16.57;;;;;;;7.65;68.32;95204.72;4979086;28;20718;-71
2022/04/15 04:31:12;;;;;;;64.63;29.20;;;;;;;7.62;68.99;95204.31;4987433;28;20613;-70
2022/04/15 04:33:38;;;;;;;73.37;29.13;;;;;;;7.63;69.06;95203.31;4987641;28;20639;-71
2022/04/15 04:36:06;;;;;;;97.00;37.93;;;;;;;7.68;69.17;95204.38;4988563;28;20226;-71
2022/04/15 04:38:33;;;;;;;134.23;52.67;;;;;;;7.72;67.59;95205.59;4987446;28;20236;-72
2022/04/15 04:41:00;;;;;;;132.70;49.20;;;;;;;7.68;67.51;95200.97;4988221;28;20212;-72
2022/04/15 04:43:27;;;;;;;104.70;45.37;;;;;;;7.68;68.77;95203.56;4987207;28;20646;-71
2022/04/15 04:45:53;;;;;;;100.00;40.37;;;;;;;7.67;69.17;95204.56;4987533;28;20226;-71
2022/04/15 04:48:22;;;;;;;95.20;39.53;;;;;;;7.74;68.22;95208.78;4988204;28;20224;-71
2022/04/15 04:50:50;;;;;;;88.57;38.50;;;;;;;7.75;68.04;95209.59;4987937;28;20216;-71
2022/04/15 04:53:17;;;;;;;91.63;37.97;;;;;;;7.79;68.38;95206.44;4987483;28;20586;-72
2022/04/15 04:55:44;;;;;;;112.77;39.43;;;;;;;7.82;68.96;95216.41;4987113;28;20216;-71
2022/04/15 04:58:11;;;;;;;69.07;33.97;;;;;;;7.87;68.64;95208.13;4988053;28;20216;-71
2022/04/15 05:00:38;;;;;;;65.63;31.73;;;;;;;7.93;67.12;95209.94;4987361;28;20212;-72
2022/04/15 05:03:05;;;;;;;81.70;30.60;;;;;;;7.96;66.64;95207.75;4987806;28;20659;-73
2022/04/15 05:05:33;;;;;;;71.87;31.17;;;;;;;8.13;65.42;95217.84;4987496;28;20204;-74
2022/04/15 05:08:00;;;;;;;70.67;29.27;;;;;;;8.17;65.55;95221.66;4987612;28;20330;-74
2022/04/15 05:10:27;;;;;;;71.77;28.40;;;;;;;8.22;65.39;95220.13;4987881;28;20211;-74
2022/04/15 05:12:54;;;;;;;44.50;20.40;;;;;;;8.26;64.94;95223.91;4985825;28;20235;-73
2022/04/15 05:15:21;;;;;;;36.70;15.90;;;;;;;8.38;64.26;95232.00;4991132;28;20598;-74
2022/04/15 05:17:48;;;;;;;30.33;13.27;;;;;;;8.42;63.86;95222.88;4990310;28;20291;-73
2022/04/15 05:20:14;;;;;;;28.57;12.67;;;;;;;8.45;63.20;95225.88;4990017;28;20219;-73
2022/04/15 05:22:44;;;;;;;34.10;13.33;;;;;;;8.50;62.99;95226.09;4973534;28;20191;-73
2022/04/15 05:25:11;;;;;;;25.53;12.60;;;;;;;8.57;62.66;95227.94;4998674;28;20202;-73
2022/04/15 05:27:38;;;;;;;31.80;13.43;;;;;;;8.65;63.14;95222.59;4991708;28;20200;-72
2022/04/15 05:30:07;;;;;;;31.80;13.03;;;;;;;8.75;63.17;95218.63;4991438;28;20239;-72
2022/04/15 05:32:34;;;;;;;32.87;12.23;;;;;;;8.76;62.43;95216.84;4976529;28;20238;-72
2022/04/15 05:35:01;;;;;;;32.50;14.90;;;;;;;8.87;61.50;95224.06;4990885;28;20203;-71
2022/04/15 05:37:28;;;;;;;36.60;16.03;;;;;;;8.79;61.79;95209.50;4993226;28;20200;-71
2022/04/15 05:39:56;;;;;;;35.33;14.43;;;;;;;8.88;61.80;95221.31;4970351;28;20193;-71
2022/04/15 05:42:23;;;;;;;29.70;13.87;;;;;;;8.92;61.48;95221.69;4969912;28;20205;-71
2022/04/15 05:44:49;;;;;;;36.80;14.13;;;;;;;8.98;61.40;95221.72;4975022;28;20205;-72
2022/04/15 05:47:16;;;;;;;28.70;13.93;;;;;;;9.02;60.47;95227.34;4974772;28;20205;-72
2022/04/15 05:49:43;;;;;;;35.37;13.90;;;;;;;9.09;61.11;95217.81;4971364;28;20935;-78
2022/04/15 05:52:10;;;;;;;27.07;14.20;;;;;;;9.14;60.50;95225.78;4970186;28;20620;-78
2022/04/15 05:54:37;;;;;;;30.20;13.20;;;;;;;9.19;59.30;95227.78;4973673;28;20659;-74
2022/04/15 05:57:05;;;;;;;34.20;12.97;;;;;;;9.23;59.28;95223.81;4974419;28;20676;-74
2022/04/15 05:59:32;;;;;;;30.77;13.53;;;;;;;9.31;59.10;95221.03;4975770;28;20203;-73
2022/04/15 06:01:59;;;;;;;26.00;13.47;;;;;;;9.40;58.05;95223.28;4969943;28;21026;-71
2022/04/15 06:04:26;;;;;;;37.13;14.87;;;;;;;9.45;57.98;95220.88;4967749;28;20224;-71
2022/04/15 06:06:52;;;;;;;35.67;15.13;;;;;;;9.47;58.05;95208.50;4971882;28;20259;-71
2022/04/15 06:09:19;;;;;;;30.40;14.43;;;;;;;9.47;59.06;95213.69;4971809;28;20743;-71
2022/04/15 06:11:46;;;;;;;34.43;14.20;;;;;;;9.49;58.69;95201.34;4975087;28;20205;-86
2022/04/15 06:14:23;;;;;;;24.53;13.70;;;;;;;9.57;58.30;95214.13;4973461;28;20644;-85
2022/04/15 06:16:58;;;;;;;35.83;13.73;;;;;;;9.64;56.83;95214.09;4975129;28;20203;-84
2022/04/15 06:19:25;;;;;;;29.93;15.53;;;;;;;9.73;57.48;95223.31;4973095;28;20201;-82
2022/04/15 06:21:52;;;;;;;26.40;14.07;;;;;;;9.77;56.44;95216.72;4971284;28;20220;-82
2022/04/15 06:24:19;;;;;;;23.40;13.23;;;;;;;9.89;56.62;95216.94;4970725;28;20264;-81
2022/04/15 06:26:46;;;;;;;24.57;13.43;;;;;;;9.88;55.87;95218.72;4971187;28;20208;-81
2022/04/15 06:29:13;;;;;;;23.63;12.77;;;;;;;9.93;56.20;95215.53;4970993;28;20220;-81
2022/04/15 06:31:42;;;;;;;27.53;14.37;;;;;;;10.05;55.97;95209.53;4970398;28;20594;-81
2022/04/15 06:34:09;;;;;;;24.27;14.07;;;;;;;10.13;56.79;95214.56;4975025;28;20252;-81
2022/04/15 06:36:36;;;;;;;27.40;14.00;;;;;;;10.23;56.23;95217.56;4977513;28;20208;-86
2022/04/15 06:39:03;;;;;;;28.97;14.20;;;;;;;10.36;55.69;95213.34;4989903;28;20232;-90
2022/04/15 06:41:30;;;;;;;36.40;15.07;;;;;;;10.42;55.08;95202.16;4994144;28;20196;-89
2022/04/15 06:43:57;;;;;;;27.47;14.37;;;;;;;10.41;55.25;95196.16;4993055;28;20206;-88
2022/04/15 06:46:24;;;;;;;28.33;14.13;;;;;;;10.46;54.26;95200.72;4993387;28;20200;-84
2022/04/15 06:48:52;;;;;;;28.70;13.43;;;;;;;10.41;53.86;95206.53;4991718;28;20310;-88
2022/04/15 06:51:19;;;;;;;24.20;13.23;;;;;;;10.56;53.59;95198.50;4993131;28;20196;-85
2022/04/15 06:53:46;;;;;;;23.93;12.80;;;;;;;10.54;53.76;95198.72;4991603;28;20208;-76
2022/04/15 06:56:14;;;;;;;24.10;13.00;;;;;;;10.71;52.99;95212.84;4997635;28;20212;-78
2022/04/15 06:58:41;;;;;;;32.03;14.10;;;;;;;10.86;52.06;95206.59;4991034;28;20202;-78
2022/04/15 07:01:08;;;;;;;27.57;12.27;;;;;;;10.92;52.90;95201.38;4997088;28;20232;-81
2022/04/15 07:03:49;;;;;;;20.27;11.47;;;;;;;11.04;51.56;95204.94;4994572;28;20340;-85
2022/04/15 07:06:18;;;;;;;26.00;11.77;;;;;;;11.13;50.88;95192.50;4992155;28;20203;-84
2022/04/15 07:08:45;;;;;;;24.07;10.93;;;;;;;11.25;50.05;95194.25;4997602;28;20223;-88
2022/04/15 07:11:12;;;;;;;25.30;11.10;;;;;;;11.27;49.27;95179.22;4993627;28;20283;-89
2022/04/15 07:13:39;;;;;;;26.77;11.27;;;;;;;11.48;49.75;95203.31;4996423;28;20242;-89
2022/04/15 07:16:06;;;;;;;20.60;10.73;;;;;;;11.44;49.39;95184.72;4992836;28;20206;-90
2022/04/15 07:18:33;;;;;;;21.50;11.83;;;;;;;11.58;49.39;95195.84;5003278;28;20193;-89
2022/04/15 07:21:00;;;;;;;16.87;10.70;;;;;;;11.67;49.25;95200.59;4994976;28;20220;-89
2022/04/15 07:23:29;;;;;;;20.13;10.60;;;;;;;11.81;48.59;95201.31;4994157;28;20204;-88
2022/04/15 07:25:56;;;;;;;16.77;10.50;;;;;;;11.90;48.23;95194.84;5006831;28;20191;-89
2022/04/15 07:28:25;;;;;;;25.73;11.10;;;;;;;12.01;48.07;95185.53;5001220;28;20200;-90
2022/04/15 07:30:52;;;;;;;24.23;11.60;;;;;;;12.09;47.99;95191.25;5003852;28;20256;-86
2022/04/15 07:33:19;;;;;;;26.80;12.37;;;;;;;12.06;47.74;95186.50;5002473;28;20196;-88
2022/04/15 07:35:46;;;;;;;23.70;12.07;;;;;;;12.12;46.91;95179.63;5000373;28;20216;-88
2022/04/15 07:38:13;;;;;;;24.33;11.93;;;;;;;12.23;47.26;95189.34;4993901;28;20235;-89
2022/04/15 07:40:42;;;;;;;19.30;11.50;;;;;;;12.24;47.03;95183.13;4995481;28;20228;-82
2022/04/15 07:43:10;;;;;;;27.17;11.57;;;;;;;12.44;47.03;95194.16;4990502;28;20286;-82
2022/04/15 07:45:37;;;;;;;29.43;11.57;;;;;;;12.48;46.41;95179.69;4990887;28;20204;-87
2022/04/15 07:48:12;;;;;;;17.10;10.40;;;;;;;12.63;46.08;95179.31;4990978;28;20192;-82
2022/04/15 07:50:42;;;;;;;23.37;10.70;;;;;;;12.73;45.47;95175.19;4988561;28;20220;-82
2022/04/15 07:53:10;;;;;;;24.50;10.40;;;;;;;12.87;44.70;95175.84;4990977;28;20204;-82
2022/04/15 07:55:45;;;;;;;20.53;9.73;;;;;;;13.00;43.73;95186.13;4993304;28;20211;-82
2022/04/15 07:58:12;;;;;;;26.70;10.37;;;;;;;13.13;41.97;95167.69;4990192;28;20211;-82
2022/04/15 08:00:42;;;;;;;18.43;9.87;;;;;;;13.29;42.14;95182.75;4990205;28;20207;-82
2022/04/15 08:03:09;;;;;;;19.50;9.40;;;;;;;13.27;42.54;95186.63;4990085;28;20200;-81
2022/04/15 08:05:36;;;;;;;19.47;9.90;;;;;;;13.22;42.35;95176.81;4989788;28;20200;-82
2022/04/15 08:08:03;;;;;;;20.30;10.17;;;;;;;13.31;42.82;95175.50;4992426;28;20226;-82
2022/04/15 08:10:30;;;;;;;18.03;10.27;;;;;;;13.46;42.65;95167.25;4990565;28;20223;-83
2022/04/15 08:12:58;;;;;;;25.33;10.07;;;;;;;13.62;42.17;95170.03;4990850;28;20199;-82
2022/04/15 08:15:29;;;;;;;19.73;8.77;;;;;;;13.63;42.48;95163.00;4995644;28;20200;-84
2022/04/15 08:17:55;;;;;;;19.70;9.10;;;;;;;13.79;41.79;95177.25;4988349;28;20220;-81
2022/04/15 08:20:22;;;;;;;16.50;9.20;;;;;;;13.92;41.70;95183.03;4995802;28;20718;-82
2022/04/15 08:22:49;;;;;;;14.93;8.27;;;;;;;14.02;41.77;95172.03;4989596;28;20208;-84
2022/04/15 08:25:16;;;;;;;13.93;8.47;;;;;;;14.17;41.06;95175.78;4990319;28;20212;-86
2022/04/15 08:27:43;;;;;;;14.07;8.20;;;;;;;14.29;41.08;95175.78;4990027;28;20200;-82
2022/04/15 08:30:15;;;;;;;19.60;8.80;;;;;;;14.40;40.97;95166.41;4989859;28;20714;-84
2022/04/15 08:32:42;;;;;;;17.53;8.83;;;;;;;14.51;40.54;95178.66;4990173;28;20205;-81
2022/04/15 08:35:12;;;;;;;14.37;8.23;;;;;;;14.61;40.60;95165.78;4991217;28;20280;-83
2022/04/15 08:37:39;;;;;;;22.23;8.80;;;;;;;14.68;40.52;95158.63;4989968;28;20624;-83
2022/04/15 08:40:07;;;;;;;14.57;8.97;;;;;;;14.81;40.50;95152.31;4989614;28;20204;-86
2022/04/15 08:42:35;;;;;;;15.47;9.47;;;;;;;14.90;40.72;95148.31;4989839;28;20215;-83
2022/04/15 08:45:03;;;;;;;18.43;8.90;;;;;;;15.00;40.74;95144.09;4989902;28;20709;-83
2022/04/15 08:47:32;;;;;;;18.27;9.53;;;;;;;15.14;40.67;95142.78;4989194;28;20639;-84
2022/04/15 08:50:00;;;;;;;23.13;9.17;;;;;;;15.22;40.18;95129.31;4989728;28;20870;-83
2022/04/15 08:52:31;;;;;;;20.83;9.13;;;;;;;15.28;40.60;95122.34;4990286;28;20216;-83
2022/04/15 08:54:58;;;;;;;18.40;8.20;;;;;;;15.54;39.47;95136.72;4987563;28;20200;-85
2022/04/15 08:57:25;;;;;;;19.13;9.00;;;;;;;15.65;39.28;95128.78;4996271;28;20279;-83
2022/04/15 08:59:53;;;;;;;22.60;8.93;;;;;;;15.86;39.11;95129.91;4991977;28;20586;-83
2022/04/15 09:02:32;;;;;;;26.37;8.80;;;;;;;16.06;38.17;95124.97;4990396;28;20281;-84
2022/04/15 09:05:04;;;;;;;18.47;8.73;;;;;;;16.25;38.13;95123.66;4988787;28;20204;-82
2022/04/15 09:07:36;;;;;;;18.10;8.87;;;;;;;16.32;37.50;95102.50;4992781;28;20222;-84
2022/04/15 09:10:06;;;;;;;17.00;8.57;;;;;;;16.57;37.36;95120.44;4990720;28;20219;-81
2022/04/15 09:12:35;;;;;;;17.83;8.17;;;;;;;16.68;37.32;95109.06;4997605;28;20192;-81
2022/04/15 09:15:11;;;;;;;21.40;8.07;;;;;;;16.84;37.20;95097.69;4991191;28;20259;-84
2022/04/15 09:17:41;;;;;;;12.57;8.37;;;;;;;16.99;35.95;95096.03;4988001;28;20286;-84
2022/04/15 09:20:11;;;;;;;21.30;8.50;;;;;;;17.17;35.43;95094.09;4989783;28;20200;-83
2022/04/15 09:22:38;;;;;;;19.13;8.70;;;;;;;17.25;35.62;95086.56;4989798;28;20253;-83
2022/04/15 09:25:06;;;;;;;26.37;9.23;;;;;;;17.33;35.92;95078.22;4989620;28;20204;-83
2022/04/15 09:27:35;;;;;;;21.60;8.33;;;;;;;17.45;35.53;95081.50;4992137;28;20200;-82
2022/04/15 09:30:03;;;;;;;16.63;8.60;;;;;;;17.65;35.39;95080.91;4990972;28;20228;-84
2022/04/15 09:32:31;;;;;;;23.77;8.70;;;;;;;17.90;35.19;95085.53;4989933;28;20216;-84
2022/04/15 09:35:01;;;;;;;20.00;9.50;;;;;;;17.95;34.41;95073.22;4989482;28;20208;-83
2022/04/15 09:37:30;;;;;;;14.30;8.98;;;;;;;18.00;34.53;95054.88;4990241;28;20221;-85
2022/04/15 09:40:06;;;;;;;21.73;8.65;;;;;;;18.32;34.13;95062.69;4986267;28;20212;-85
2022/04/15 09:42:34;;;;;;;19.67;9.00;;;;;;;18.66;33.72;95065.75;4989051;28;20231;-85
2022/04/15 09:45:12;;;;;;;14.48;8.43;;;;;;;18.96;33.45;95057.16;4989490;28;20921;-85
2022/04/15 09:47:40;;;;;;;19.80;8.95;;;;;;;19.23;32.77;95055.09;4988391;28;20215;-84
2022/04/15 09:50:23;;;;;;;17.17;8.27;;;;;;;19.37;31.99;95037.72;4989987;28;20306;-82
2022/04/15 09:52:51;;;;;;;13.80;8.55;;;;;;;19.50;31.92;95028.53;4989921;28;20208;-84
2022/04/15 09:55:20;;;;;;;20.90;8.73;;;;;;;19.88;31.98;95046.44;4991180;28;20275;-84
2022/04/15 09:57:48;;;;;;;15.05;7.93;;;;;;;20.16;31.82;95045.06;4994146;28;20212;-86
2022/04/15 10:00:16;;;;;;;20.05;7.38;;;;;;;20.35;30.92;95033.69;4992474;28;20212;-85
2022/04/15 10:02:44;;;;;;;28.98;7.85;;;;;;;20.72;30.60;95030.63;4992458;28;20240;-85
2022/04/15 10:05:15;;;;;;;17.90;8.30;;;;;;;20.95;29.93;95018.63;4995839;28;20234;-84
2022/04/15 10:07:43;;;;;;;18.92;8.05;;;;;;;21.39;29.21;95029.19;4993736;28;20263;-85
2022/04/15 10:10:11;;;;;;;14.10;7.70;;;;;;;21.58;29.45;95024.03;4992389;28;20263;-85
2022/04/15 10:12:39;;;;;;;15.40;7.60;;;;;;;21.67;29.44;95006.50;4992249;28;20227;-85
2022/04/15 10:15:09;;;;;;;19.90;7.32;;;;;;;21.89;28.55;95023.53;4993944;28;20219;-74
2022/04/15 10:17:37;;;;;;;13.55;7.60;;;;;;;22.12;28.02;95015.88;4988026;28;20200;-74
2022/04/15 10:20:05;;;;;;;14.80;6.78;;;;;;;22.26;28.32;95017.59;4994591;28;20209;-73
2022/04/15 10:22:36;;;;;;;16.80;7.07;;;;;;;22.44;28.41;95002.81;4993528;28;20686;-84
2022/04/15 10:25:05;;;;;;;11.15;6.80;;;;;;;22.63;27.35;95001.00;4995669;28;20203;-85
2022/04/15 10:27:32;;;;;;;18.55;7.13;;;;;;;23.01;27.31;95009.78;4998409;28;20195;-84
2022/04/15 10:30:04;;;;;;;12.82;6.45;;;;;;;23.20;26.47;95010.59;4998973;28;20225;-84
2022/04/15 10:32:47;;;;;;;9.60;6.00;;;;;;;23.57;26.06;95004.47;4989751;28;20220;-84
2022/04/15 10:35:21;;;;;;;14.23;5.88;;;;;;;23.76;26.54;94999.09;4994624;28;21006;-85
2022/04/15 10:37:55;;;;;;;13.27;5.90;;;;;;;23.97;26.07;94992.38;4995630;28;20522;-85
2022/04/15 10:40:29;;;;;;;16.27;6.05;;;;;;;24.26;25.10;94993.72;4995082;28;20192;-85
2022/04/15 10:43:03;;;;;;;9.75;5.65;;;;;;;24.52;24.51;94974.59;4988003;28;20204;-86
2022/04/15 10:45:34;;;;;;;12.07;5.80;;;;;;;24.50;24.50;94979.44;4989709;28;20247;-85
2022/04/15 10:48:02;;;;;;;13.45;6.35;;;;;;;24.62;24.52;94983.16;4996374;28;20211;-85
2022/04/15 10:50:31;;;;;;;13.10;6.00;;;;;;;24.65;24.26;94979.09;4991374;28;20224;-84
2022/04/15 10:53:29;;;;;;;12.93;6.35;;;;;;;24.94;24.28;94962.81;4987128;28;20627;-84
2022/04/15 10:56:08;;;;;;;14.00;7.05;;;;;;;25.16;23.94;94965.53;4995651;28;20199;-84
2022/04/15 11:01:13;;;;;;;11.48;6.00;;;;;;;25.30;24.31;94972.38;4997913;28;20192;-84
2022/04/15 11:01:35;;;;;;;14.98;5.72;;;;;;;25.60;23.10;94975.44;4997841;28;20908;-85
2022/04/15 11:04:08;;;;;;;11.88;5.82;;;;;;;25.51;23.19;94966.59;4994142;28;20684;-85
2022/04/15 11:06:35;;;;;;;11.80;5.72;;;;;;;25.78;22.68;94961.88;4996829;28;20729;-85
2022/04/15 11:09:16;;;;;;;12.68;5.80;;;;;;;25.79;22.71;94955.47;4989588;28;20299;-85
2022/04/15 11:11:45;;;;;;;11.93;5.50;;;;;;;26.31;22.63;94958.38;4989778;28;20287;-85
2022/04/15 11:14:16;;;;;;;10.25;5.47;;;;;;;26.50;21.78;94962.34;4991941;28;20670;-86
2022/04/15 11:16:48;;;;;;;11.13;5.22;;;;;;;26.24;22.25;94948.16;4996592;28;20204;-85
2022/04/15 11:19:22;;;;;;;14.27;5.60;;;;;;;26.52;23.30;94944.16;4991878;28;20204;-85
2022/04/15 11:21:56;;;;;;;13.48;5.55;;;;;;;26.76;22.41;94954.41;4993909;28;20664;-86
2022/04/15 11:24:26;;;;;;;12.30;5.07;;;;;;;27.06;21.48;94939.41;4992454;28;20198;-85
2022/04/15 11:27:03;;;;;;;11.93;6.00;;;;;;;26.99;21.36;94942.53;4996348;28;20224;-87
2022/04/15 11:29:32;;;;;;;11.35;4.53;;;;;;;27.09;20.96;94937.97;4993542;28;20204;-85
2022/04/15 11:32:00;;;;;;;14.95;5.45;;;;;;;27.32;20.85;94934.84;4993547;28;20211;-85